SWA32 KDAL-KLIT
Flight info
| Callsign | SWA32 |
|---|---|
| Flight time | N/A |
| Altitude | 33000 |
| Route | LNDRE5 BSKAT LIT |
| Aircraft | B738/M-SADE2E3GIJ4RWZ/LB1D1 |
Departure
| Time | N/A |
|---|---|
| Airport | Dallas Love Field (KDAL) |
Arrival
| Time | 2026-04-16 07:16 |
|---|---|
| Airport | Bill & Hillary Clinton National Airport/Adams Field (KLIT) |
| Time | Latitude | Longitude | Altitude | Speed | Heading |
|---|---|---|---|---|---|
| 2026-04-16 06:43 | 34.48027 | -92.76334 | 11305 ft | 352 kts | 55° |
| 2026-04-16 06:44 | 34.49365 | -92.73874 | 10937 ft | 348 kts | 55° |
| 2026-04-16 06:44 | 34.50703 | -92.71414 | 10583 ft | 353 kts | 55° |
| 2026-04-16 06:44 | 34.52032 | -92.68967 | 10417 ft | 348 kts | 55° |
| 2026-04-16 06:44 | 34.53330 | -92.66574 | 10255 ft | 331 kts | 55° |
| 2026-04-16 06:45 | 34.54565 | -92.64293 | 10105 ft | 317 kts | 55° |
| 2026-04-16 06:45 | 34.55765 | -92.62079 | 9995 ft | 313 kts | 55° |
| 2026-04-16 06:45 | 34.56966 | -92.59865 | 9729 ft | 314 kts | 55° |
| 2026-04-16 06:45 | 34.58164 | -92.57652 | 9442 ft | 314 kts | 55° |
| 2026-04-16 06:46 | 34.59360 | -92.55442 | 9147 ft | 313 kts | 56° |
| 2026-04-16 06:46 | 34.60552 | -92.53239 | 8853 ft | 312 kts | 56° |
| 2026-04-16 06:46 | 34.61738 | -92.51046 | 8572 ft | 310 kts | 56° |
| 2026-04-16 06:46 | 34.62919 | -92.48859 | 8280 ft | 309 kts | 56° |
| 2026-04-16 06:47 | 34.64096 | -92.46678 | 7995 ft | 308 kts | 56° |
| 2026-04-16 06:47 | 34.65267 | -92.44507 | 7713 ft | 307 kts | 56° |
| 2026-04-16 06:47 | 34.66435 | -92.42341 | 7425 ft | 306 kts | 57° |
| 2026-04-16 06:47 | 34.67598 | -92.40182 | 7144 ft | 305 kts | 56° |
| 2026-04-16 06:48 | 34.68905 | -92.38155 | 6858 ft | 304 kts | 48° |
| 2026-04-16 06:48 | 34.70304 | -92.36231 | 6599 ft | 303 kts | 47° |
| 2026-04-16 06:48 | 34.71718 | -92.34332 | 6313 ft | 303 kts | 46° |
| 2026-04-16 06:48 | 34.73136 | -92.32428 | 6006 ft | 304 kts | 47° |
| 2026-04-16 06:49 | 34.74558 | -92.30531 | 5714 ft | 303 kts | 47° |
| 2026-04-16 06:49 | 34.75981 | -92.28652 | 5420 ft | 302 kts | 47° |
| 2026-04-16 06:49 | 34.77413 | -92.26795 | 5158 ft | 300 kts | 47° |
| 2026-04-16 06:49 | 34.78839 | -92.24961 | 4868 ft | 297 kts | 47° |
| 2026-04-16 06:50 | 34.80261 | -92.23141 | 4598 ft | 296 kts | 47° |
| 2026-04-16 06:50 | 34.81673 | -92.21344 | 4392 ft | 292 kts | 47° |
| 2026-04-16 06:50 | 34.83075 | -92.19572 | 4212 ft | 289 kts | 46° |
| 2026-04-16 06:50 | 34.84460 | -92.17822 | 4071 ft | 287 kts | 46° |
| 2026-04-16 06:51 | 34.85834 | -92.16088 | 4018 ft | 282 kts | 47° |
| 2026-04-16 06:51 | 34.87155 | -92.14427 | 3955 ft | 271 kts | 46° |
| 2026-04-16 06:51 | 34.88453 | -92.12799 | 3704 ft | 265 kts | 46° |
| 2026-04-16 06:51 | 34.89708 | -92.11157 | 3298 ft | 265 kts | 56° |
| 2026-04-16 06:52 | 34.90313 | -92.09125 | 3042 ft | 251 kts | 95° |
| 2026-04-16 06:52 | 34.89985 | -92.07052 | 3054 ft | 249 kts | 122° |
| 2026-04-16 06:52 | 34.88999 | -92.05412 | 3009 ft | 233 kts | 148° |
| 2026-04-16 06:52 | 34.87643 | -92.04524 | 2992 ft | 214 kts | 171° |
| 2026-04-16 06:53 | 34.86215 | -92.04332 | 2998 ft | 203 kts | 188° |
| 2026-04-16 06:53 | 34.84884 | -92.04748 | 2988 ft | 199 kts | 215° |
| 2026-04-16 06:53 | 34.83960 | -92.05988 | 3007 ft | 199 kts | 229° |
| 2026-04-16 06:53 | 34.83032 | -92.07245 | 3003 ft | 198 kts | 226° |
| 2026-04-16 06:54 | 34.82103 | -92.08470 | 2805 ft | 196 kts | 226° |
| 2026-04-16 06:54 | 34.81199 | -92.09693 | 2549 ft | 191 kts | 226° |
| 2026-04-16 06:54 | 34.80328 | -92.10873 | 2299 ft | 185 kts | 226° |
| 2026-04-16 06:54 | 34.79488 | -92.12009 | 2062 ft | 177 kts | 226° |
| 2026-04-16 06:55 | 34.78688 | -92.13094 | 1827 ft | 165 kts | 226° |
| 2026-04-16 06:55 | 34.77954 | -92.14087 | 1602 ft | 151 kts | 227° |
| 2026-04-16 06:55 | 34.77294 | -92.14982 | 1429 ft | 136 kts | 226° |
| 2026-04-16 06:55 | 34.76671 | -92.15824 | 1239 ft | 136 kts | 227° |
| 2026-04-16 06:56 | 34.76024 | -92.16698 | 1098 ft | 144 kts | 229° |
| 2026-04-16 06:56 | 34.75810 | -92.16997 | 1070 ft | 143 kts | 231° |
| 2026-04-16 06:56 | 34.75130 | -92.17918 | 800 ft | 149 kts | 233° |
| 2026-04-16 06:56 | 34.74427 | -92.18887 | 595 ft | 155 kts | 236° |
| 2026-04-16 06:57 | 34.73676 | -92.19887 | 684 ft | 168 kts | 232° |
| 2026-04-16 06:57 | 34.72887 | -92.20876 | 1994 ft | 156 kts | 225° |
| 2026-04-16 06:57 | 34.72166 | -92.21831 | 2981 ft | 164 kts | 225° |
| 2026-04-16 06:57 | 34.71342 | -92.22899 | 2984 ft | 186 kts | 226° |
| 2026-04-16 06:58 | 34.70415 | -92.24111 | 3002 ft | 205 kts | 226° |
| 2026-04-16 06:58 | 34.69380 | -92.25465 | 2989 ft | 228 kts | 227° |
| 2026-04-16 06:58 | 34.68283 | -92.26897 | 2985 ft | 234 kts | 226° |
| 2026-04-16 06:58 | 34.67172 | -92.28335 | 2992 ft | 233 kts | 226° |
| 2026-04-16 06:59 | 34.66021 | -92.29696 | 2996 ft | 231 kts | 214° |
| 2026-04-16 06:59 | 34.64508 | -92.30160 | 2993 ft | 226 kts | 182° |
| 2026-04-16 06:59 | 34.62983 | -92.29975 | 2984 ft | 215 kts | 180° |
| 2026-04-16 06:59 | 34.61531 | -92.29765 | 2981 ft | 208 kts | 180° |
| 2026-04-16 07:00 | 34.60166 | -92.29302 | 2964 ft | 204 kts | 155° |
| 2026-04-16 07:00 | 34.59276 | -92.28001 | 2963 ft | 204 kts | 118° |
| 2026-04-16 07:00 | 34.59176 | -92.26255 | 2969 ft | 217 kts | 80° |
| 2026-04-16 07:01 | 34.61323 | -92.23785 | 2891 ft | 228 kts | 5° |
| 2026-04-16 07:01 | 34.62908 | -92.23829 | 2474 ft | 227 kts | 346° |
| 2026-04-16 07:01 | 34.64463 | -92.24024 | 2069 ft | 219 kts | 344° |
| 2026-04-16 07:01 | 34.65947 | -92.24120 | 1759 ft | 208 kts | 355° |
| 2026-04-16 07:02 | 34.67336 | -92.24066 | 1420 ft | 194 kts | 358° |
| 2026-04-16 07:02 | 34.68642 | -92.24003 | 1123 ft | 182 kts | 358° |
| 2026-04-16 07:02 | 34.69859 | -92.23952 | 827 ft | 166 kts | 357° |
| 2026-04-16 07:02 | 34.70961 | -92.23907 | 613 ft | 157 kts | 357° |
| 2026-04-16 07:03 | 34.72005 | -92.23872 | 369 ft | 144 kts | 356° |
| 2026-04-16 07:03 | 34.72954 | -92.23837 | 284 ft | 124 kts | 358° |
| 2026-04-16 07:03 | 34.73892 | -92.23782 | 865 ft | 149 kts | 359° |
| 2026-04-16 07:03 | 34.75078 | -92.23651 | 1479 ft | 198 kts | 9° |
| 2026-04-16 07:04 | 34.76309 | -92.22671 | 1862 ft | 229 kts | 54° |
| 2026-04-16 07:04 | 34.77236 | -92.20987 | 2294 ft | 248 kts | 58° |
| 2026-04-16 07:04 | 34.78188 | -92.19289 | 2576 ft | 244 kts | 58° |
| 2026-04-16 07:04 | 34.79182 | -92.17550 | 2683 ft | 254 kts | 57° |
| 2026-04-16 07:05 | 34.80213 | -92.15774 | 2662 ft | 256 kts | 57° |
| 2026-04-16 07:05 | 34.81249 | -92.14016 | 2654 ft | 257 kts | 57° |
| 2026-04-16 07:05 | 34.81996 | -92.12076 | 2713 ft | 254 kts | 91° |
| 2026-04-16 07:05 | 34.81622 | -92.10001 | 3034 ft | 258 kts | 130° |
| 2026-04-16 07:06 | 34.80399 | -92.08434 | 3248 ft | 254 kts | 155° |
| 2026-04-16 07:06 | 34.78810 | -92.07675 | 3283 ft | 242 kts | 176° |
| 2026-04-16 07:06 | 34.77156 | -92.07630 | 3295 ft | 237 kts | 187° |
| 2026-04-16 07:06 | 34.75505 | -92.07786 | 3293 ft | 238 kts | 189° |
| 2026-04-16 07:07 | 34.73869 | -92.07970 | 3300 ft | 236 kts | 189° |
| 2026-04-16 07:07 | 34.72238 | -92.08153 | 3293 ft | 236 kts | 189° |
| 2026-04-16 07:07 | 34.70607 | -92.08329 | 3283 ft | 235 kts | 189° |
| 2026-04-16 07:07 | 34.68962 | -92.08503 | 3291 ft | 239 kts | 188° |
| 2026-04-16 07:08 | 34.67297 | -92.08675 | 3295 ft | 240 kts | 189° |
| 2026-04-16 07:08 | 34.65637 | -92.08842 | 3284 ft | 239 kts | 189° |
| 2026-04-16 07:08 | 34.63984 | -92.09007 | 3281 ft | 238 kts | 189° |
| 2026-04-16 07:08 | 34.62327 | -92.09171 | 3281 ft | 238 kts | 188° |
| 2026-04-16 07:09 | 34.60679 | -92.09333 | 3282 ft | 238 kts | 189° |
| 2026-04-16 07:09 | 34.59022 | -92.09496 | 3269 ft | 239 kts | 188° |
| 2026-04-16 07:09 | 34.57369 | -92.09658 | 3269 ft | 239 kts | 189° |
| 2026-04-16 07:09 | 34.55706 | -92.09821 | 3267 ft | 240 kts | 188° |
| 2026-04-16 07:10 | 34.54043 | -92.09983 | 3264 ft | 240 kts | 188° |
| 2026-04-16 07:10 | 34.52374 | -92.10148 | 3263 ft | 240 kts | 190° |
| 2026-04-16 07:10 | 34.50819 | -92.10749 | 3251 ft | 235 kts | 214° |
| 2026-04-16 07:10 | 34.49667 | -92.12124 | 3250 ft | 235 kts | 234° |
| 2026-04-16 07:11 | 34.48987 | -92.13925 | 3256 ft | 239 kts | 253° |
| 2026-04-16 07:11 | 34.48877 | -92.15952 | 3255 ft | 243 kts | 266° |
| 2026-04-16 07:11 | 34.48909 | -92.17310 | 3259 ft | 243 kts | 266° |
| 2026-04-16 07:11 | 34.48962 | -92.19359 | 3251 ft | 243 kts | 266° |
| 2026-04-16 07:12 | 34.49162 | -92.21389 | 3246 ft | 245 kts | 283° |
| 2026-04-16 07:12 | 34.50090 | -92.23101 | 3238 ft | 246 kts | 310° |
| 2026-04-16 07:12 | 34.51541 | -92.24192 | 3244 ft | 248 kts | 334° |
| 2026-04-16 07:12 | 34.53248 | -92.24540 | 3268 ft | 252 kts | 353° |
| 2026-04-16 07:13 | 34.54982 | -92.24502 | 3272 ft | 245 kts | 357° |
| 2026-04-16 07:13 | 34.56637 | -92.24413 | 3264 ft | 233 kts | 357° |
| 2026-04-16 07:13 | 34.58247 | -92.24335 | 3106 ft | 228 kts | 355° |
| 2026-04-16 07:13 | 34.59797 | -92.24271 | 3043 ft | 220 kts | 355° |
| 2026-04-16 07:14 | 34.61330 | -92.24217 | 2780 ft | 221 kts | 355° |
| 2026-04-16 07:14 | 34.62877 | -92.24166 | 2454 ft | 222 kts | 354° |
| 2026-04-16 07:14 | 34.64400 | -92.24114 | 2099 ft | 215 kts | 354° |
| 2026-04-16 07:14 | 34.65856 | -92.24064 | 1771 ft | 204 kts | 355° |
| 2026-04-16 07:15 | 34.67232 | -92.24019 | 1486 ft | 189 kts | 356° |
| 2026-04-16 07:15 | 34.68495 | -92.23982 | 1140 ft | 175 kts | 357° |
| 2026-04-16 07:15 | 34.69650 | -92.23940 | 864 ft | 157 kts | 358° |
| 2026-04-16 07:15 | 34.70665 | -92.23911 | 619 ft | 141 kts | 358° |
| 2026-04-16 07:16 | 34.71646 | -92.23883 | 434 ft | 139 kts | 358° |
| 2026-04-16 07:16 | 34.72585 | -92.23852 | 276 ft | 128 kts | 357° |
| 2026-04-16 07:16 | 34.73324 | -92.23830 | 267 ft | 79 kts | 1° |
| 2026-04-16 07:16 | 34.73681 | -92.23820 | 264 ft | 38 kts | 1° |
| 2026-04-16 07:17 | 34.73896 | -92.23813 | 264 ft | 20 kts | 3° |
| 2026-04-16 07:17 | 34.73973 | -92.23732 | 265 ft | 15 kts | 97° |
| 2026-04-16 07:17 | 34.73890 | -92.23679 | 266 ft | 15 kts | 181° |
| 2026-04-16 07:17 | 34.73790 | -92.23682 | 267 ft | 14 kts | 181° |
| 2026-04-16 07:18 | 34.73693 | -92.23687 | 267 ft | 16 kts | 182° |
| 2026-04-16 07:18 | 34.73559 | -92.23654 | 266 ft | 22 kts | 143° |
| 2026-04-16 07:18 | 34.73439 | -92.23538 | 266 ft | 22 kts | 142° |
| 2026-04-16 07:18 | 34.73321 | -92.23426 | 266 ft | 21 kts | 141° |
| 2026-04-16 07:19 | 34.73207 | -92.23317 | 266 ft | 21 kts | 142° |
| 2026-04-16 07:19 | 34.73085 | -92.23199 | 266 ft | 23 kts | 141° |
| 2026-04-16 07:19 | 34.72985 | -92.23086 | 266 ft | 15 kts | 99° |
| 2026-04-16 07:19 | 34.73046 | -92.22982 | 265 ft | 16 kts | 46° |
| 2026-04-16 07:20 | 34.73120 | -92.22874 | 265 ft | 16 kts | 83° |
| 2026-04-16 07:20 | 34.73044 | -92.22764 | 263 ft | 19 kts | 135° |
| 2026-04-16 07:20 | 34.73008 | -92.22647 | 266 ft | 17 kts | 51° |
| 2026-04-16 07:20 | 34.73085 | -92.22545 | 266 ft | 18 kts | 47° |
| 2026-04-16 07:21 | 34.73141 | -92.22414 | 266 ft | 19 kts | 105° |
| 2026-04-16 07:21 | 34.73098 | -92.22261 | 266 ft | 17 kts | 111° |
| 2026-04-16 07:21 | 34.73071 | -92.22177 | 266 ft | 7 kts | 111° |
| 2026-04-16 07:21 | 34.73082 | -92.22122 | 266 ft | 7 kts | 36° |
| 2026-04-16 07:22 | 34.73133 | -92.22095 | 266 ft | 10 kts | 21° |
| 2026-04-16 07:22 | 34.73175 | -92.22046 | 266 ft | 4 kts | 100° |
| 2026-04-16 07:22 | 34.73148 | -92.22014 | 266 ft | 6 kts | 152° |
| 2026-04-16 07:22 | 34.73120 | -92.21998 | 266 ft | 2 kts | 155° |
| 2026-04-16 07:23 | 34.73118 | -92.21997 | 266 ft | 0 kts | 155° |
| 2026-04-16 07:23 | 34.74525 | -92.18751 | 624 ft | 155 kts | 237° |
| 2026-04-16 07:23 | 34.73833 | -92.19693 | 525 ft | 168 kts | 233° |
| 2026-04-16 07:24 | 34.60795 | -92.29627 | 2968 ft | 205 kts | 172° |